createdAt,value
2022-09-14T00:01:31.751Z,2.90
2022-09-14T00:04:03.692Z,2.65
2022-09-14T00:06:31.168Z,2.65
2022-09-14T00:09:03.037Z,2.72
2022-09-14T00:11:32.082Z,2.83
2022-09-14T00:14:01.465Z,2.25
2022-09-14T00:16:36.637Z,2.78
2022-09-14T00:19:23.559Z,3.40
2022-09-14T00:21:56.975Z,3.08
2022-09-14T00:24:26.867Z,2.88
2022-09-14T00:26:54.216Z,1.90
2022-09-14T00:29:21.438Z,2.05
2022-09-14T00:31:48.265Z,2.25
2022-09-14T00:34:17.129Z,2.38
2022-09-14T00:36:47.427Z,2.00
2022-09-14T00:39:16.346Z,1.80
2022-09-14T00:41:45.885Z,1.63
2022-09-14T00:44:15.216Z,2.25
2022-09-14T00:46:48.601Z,3.00
2022-09-14T00:49:24.115Z,3.33
2022-09-14T00:51:59.164Z,2.90
2022-09-14T00:54:26.767Z,2.65
2022-09-14T00:56:54.837Z,3.42
2022-09-14T00:59:31.011Z,4.90
2022-09-14T01:01:58.071Z,4.15
2022-09-14T01:04:25.002Z,4.00
2022-09-14T01:07:34.169Z,4.75
2022-09-14T01:10:12.276Z,4.70
2022-09-14T01:12:58.567Z,4.95
2022-09-14T01:15:56.420Z,4.93
2022-09-14T01:18:33.363Z,5.38
2022-09-14T01:21:32.730Z,6.38
2022-09-14T01:24:33.334Z,7.53
2022-09-14T01:27:34.715Z,8.02
2022-09-14T01:30:12.811Z,6.00
2022-09-14T01:32:45.165Z,6.38
2022-09-14T01:35:27.406Z,3.25
2022-09-14T01:38:18.932Z,4.07
2022-09-14T01:40:49.958Z,3.50
2022-09-14T01:43:40.847Z,3.70
2022-09-14T01:46:18.355Z,3.22
2022-09-14T01:49:32.195Z,2.83
2022-09-14T01:52:13.241Z,2.88
2022-09-14T01:54:45.221Z,2.42
2022-09-14T01:57:17.917Z,2.25
2022-09-14T01:59:47.354Z,2.90
2022-09-14T02:02:39.889Z,2.97
2022-09-14T02:05:41.207Z,2.55
2022-09-14T02:08:08.995Z,2.42
2022-09-14T02:10:36.171Z,3.08
2022-09-14T02:13:03.385Z,2.85
2022-09-14T02:15:30.490Z,2.75
2022-09-14T02:17:57.327Z,2.72
2022-09-14T02:20:37.071Z,2.40
2022-09-14T02:23:05.258Z,2.38
2022-09-14T02:25:33.319Z,5.65
2022-09-14T02:28:00.211Z,5.82
2022-09-14T02:30:28.318Z,6.30
2022-09-14T02:33:18.280Z,3.38
2022-09-14T02:35:54.219Z,2.72
2022-09-14T02:38:59.484Z,2.83
2022-09-14T02:42:04.132Z,3.55
2022-09-14T02:45:02.489Z,3.70
2022-09-14T02:47:38.431Z,4.95
2022-09-14T02:50:36.833Z,4.43
2022-09-14T02:53:27.020Z,3.17
2022-09-14T02:56:01.703Z,4.45
2022-09-14T02:58:44.230Z,3.95
2022-09-14T03:01:18.698Z,3.05
2022-09-14T03:03:45.589Z,4.60
2022-09-14T03:06:12.737Z,2.38
2022-09-14T03:08:41.565Z,3.20
2022-09-14T03:11:08.911Z,2.30
2022-09-14T03:13:36.686Z,2.90
2022-09-14T03:16:12.195Z,2.47
2022-09-14T03:18:40.016Z,3.28
2022-09-14T03:21:13.629Z,3.50
2022-09-14T03:23:50.160Z,3.90
2022-09-14T03:26:23.437Z,4.45
2022-09-14T03:28:56.732Z,4.00
2022-09-14T03:31:24.299Z,2.88
2022-09-14T03:33:57.206Z,2.97
2022-09-14T03:36:26.870Z,2.58
2022-09-14T03:38:56.396Z,3.72
2022-09-14T03:41:24.464Z,3.25
2022-09-14T03:43:51.909Z,3.60
2022-09-14T03:46:23.436Z,3.70
2022-09-14T03:48:51.456Z,4.15
2022-09-14T03:51:18.906Z,4.07
2022-09-14T03:53:46.530Z,3.63
2022-09-14T03:56:20.352Z,3.50
2022-09-14T03:58:49.318Z,4.93
2022-09-14T04:01:20.587Z,3.45
2022-09-14T04:03:48.676Z,3.13
2022-09-14T04:06:17.002Z,2.70
2022-09-14T04:08:45.908Z,1.70
2022-09-14T04:11:20.030Z,1.77
2022-09-14T04:13:47.977Z,1.73
2022-09-14T04:16:16.153Z,1.45
2022-09-14T04:18:43.615Z,1.90
2022-09-14T04:21:17.355Z,2.80
2022-09-14T04:24:13.249Z,4.35
2022-09-14T04:26:32.750Z,4.13
2022-09-14T04:28:59.837Z,3.90
2022-09-14T04:31:26.852Z,5.00
2022-09-14T04:33:56.443Z,4.47
2022-09-14T04:36:28.491Z,4.10
2022-09-14T04:38:58.238Z,3.00
2022-09-14T04:41:26.528Z,7.22
2022-09-14T04:43:55.943Z,4.15
2022-09-14T04:46:43.598Z,3.50
2022-09-14T04:49:14.788Z,4.82
2022-09-14T04:51:41.572Z,3.40
2022-09-14T04:54:10.085Z,3.08
2022-09-14T04:56:37.154Z,3.47
2022-09-14T04:59:05.772Z,6.03
2022-09-14T05:01:42.791Z,4.45
2022-09-14T05:04:11.838Z,2.15
2022-09-14T05:06:40.920Z,3.63
2022-09-14T05:09:15.862Z,8.50
2022-09-14T05:11:43.145Z,4.22
2022-09-14T05:14:13.206Z,2.45
2022-09-14T05:16:41.762Z,2.38
2022-09-14T05:19:14.738Z,4.38
2022-09-14T05:21:41.866Z,4.13
2022-09-14T05:24:17.936Z,3.28
2022-09-14T05:26:46.304Z,4.07
2022-09-14T05:29:18.645Z,2.15
2022-09-14T05:31:46.327Z,4.90
2022-09-14T05:34:13.470Z,4.53
2022-09-14T05:36:40.876Z,2.55
2022-09-14T05:39:08.883Z,2.75
2022-09-14T05:41:37.573Z,3.15
2022-09-14T05:44:05.405Z,3.90
2022-09-14T05:46:32.840Z,3.10
2022-09-14T05:48:59.754Z,3.40
2022-09-14T05:51:28.284Z,3.83
2022-09-14T05:53:57.709Z,2.88
2022-09-14T05:56:28.542Z,3.53
2022-09-14T05:58:56.176Z,4.20
2022-09-14T06:01:26.320Z,3.45
2022-09-14T06:03:55.977Z,2.95
2022-09-14T06:06:24.087Z,3.83
2022-09-14T06:08:54.013Z,4.75
2022-09-14T06:11:31.436Z,6.30
2022-09-14T06:13:59.315Z,4.30
2022-09-14T06:16:28.113Z,6.07
2022-09-14T06:18:57.936Z,8.70
2022-09-14T06:21:33.023Z,9.65
2022-09-14T06:24:00.524Z,9.43
2022-09-14T06:26:27.459Z,10.88
2022-09-14T06:28:54.526Z,13.23
2022-09-14T06:31:22.619Z,15.68
2022-09-14T06:33:51.895Z,16.90
2022-09-14T06:36:23.301Z,18.60
2022-09-14T06:38:50.667Z,21.05
2022-09-14T06:41:22.736Z,21.92
2022-09-14T06:43:51.033Z,23.17
2022-09-14T06:46:27.874Z,16.35
2022-09-14T06:49:00.716Z,22.98
2022-09-14T06:51:35.420Z,25.15
2022-09-14T06:54:03.937Z,27.55
2022-09-14T06:56:37.162Z,26.75
2022-09-14T06:59:06.106Z,17.13
2022-09-14T07:01:33.729Z,27.65
2022-09-14T07:04:01.661Z,25.55
2022-09-14T07:06:41.910Z,30.52
2022-09-14T07:09:09.037Z,17.92
2022-09-14T07:11:36.485Z,18.25
2022-09-14T07:14:03.676Z,20.65
2022-09-14T07:16:32.650Z,20.33
2022-09-14T07:19:02.950Z,21.00
2022-09-14T07:21:32.055Z,18.55
2022-09-14T07:23:59.198Z,15.00
2022-09-14T07:26:33.715Z,16.23
2022-09-14T07:29:04.551Z,19.00
2022-09-14T07:31:45.749Z,18.67
2022-09-14T07:34:13.480Z,19.13
2022-09-14T07:36:41.206Z,18.38
2022-09-14T07:39:11.820Z,18.77
2022-09-14T07:41:39.016Z,16.60
2022-09-14T07:44:08.295Z,18.77
2022-09-14T07:46:41.624Z,19.58
2022-09-14T07:49:09.759Z,22.38
2022-09-14T07:51:38.697Z,20.77
2022-09-14T07:54:07.607Z,22.90
2022-09-14T07:56:35.231Z,23.55
2022-09-14T07:59:30.853Z,22.13
2022-09-14T08:01:51.369Z,25.02
2022-09-14T08:04:18.406Z,22.60
2022-09-14T08:06:45.262Z,16.58
2022-09-14T08:09:12.504Z,17.75
2022-09-14T08:11:39.441Z,17.88
2022-09-14T08:14:10.210Z,20.10
2022-09-14T08:16:38.907Z,21.92
2022-09-14T08:19:12.402Z,21.90
2022-09-14T08:21:44.096Z,23.17
2022-09-14T08:24:14.844Z,23.38
2022-09-14T08:26:41.948Z,24.17
2022-09-14T08:29:08.821Z,20.63
2022-09-14T08:31:39.935Z,20.92
2022-09-14T08:34:07.576Z,20.00
2022-09-14T08:36:37.790Z,20.88
2022-09-14T08:39:10.787Z,19.17
2022-09-14T08:41:43.591Z,15.18
2022-09-14T08:44:35.471Z,17.27
2022-09-14T08:47:19.433Z,15.83
2022-09-14T08:49:52.383Z,14.50
2022-09-14T08:52:26.151Z,12.98
2022-09-14T08:55:00.480Z,13.07
2022-09-14T08:57:44.088Z,13.32
2022-09-14T09:00:16.613Z,11.57
2022-09-14T09:03:18.898Z,11.70
2022-09-14T09:06:15.761Z,12.93
2022-09-14T09:09:13.713Z,11.02
2022-09-14T09:11:46.542Z,11.32
2022-09-14T09:14:26.832Z,12.30
2022-09-14T09:16:57.832Z,9.95
2022-09-14T09:19:32.059Z,11.82
2022-09-14T09:22:03.316Z,10.85
2022-09-14T09:24:37.241Z,8.73
2022-09-14T09:27:14.382Z,9.35
2022-09-14T09:29:41.812Z,9.20
2022-09-14T09:32:15.760Z,10.48
2022-09-14T09:34:42.602Z,10.20
2022-09-14T09:37:20.369Z,10.20
2022-09-14T09:39:47.535Z,10.05
2022-09-14T09:42:24.703Z,8.25
2022-09-14T09:45:02.565Z,9.60
2022-09-14T09:47:39.146Z,8.30
2022-09-14T09:50:21.171Z,9.43
2022-09-14T09:52:55.100Z,8.80
2022-09-14T09:55:27.207Z,9.43
2022-09-14T10:00:28.485Z,7.45
2022-09-14T10:02:56.349Z,7.63
2022-09-14T10:05:29.146Z,6.53
2022-09-14T10:08:02.312Z,6.20
2022-09-14T10:10:35.316Z,5.32
2022-09-14T10:13:06.604Z,5.00
2022-09-14T10:15:36.575Z,3.60
2022-09-14T10:18:11.469Z,3.20
2022-09-14T10:20:45.115Z,3.72
2022-09-14T10:23:17.745Z,3.22
2022-09-14T10:26:14.291Z,2.20
2022-09-14T10:28:48.641Z,2.72
2022-09-14T10:31:15.938Z,2.72
2022-09-14T10:33:43.031Z,3.17
2022-09-14T10:36:33.482Z,2.78
2022-09-14T10:39:11.041Z,2.45
2022-09-14T10:42:00.397Z,2.88
2022-09-14T10:44:56.349Z,1.95
2022-09-14T10:48:02.602Z,2.13
2022-09-14T10:50:57.426Z,2.10
2022-09-14T10:53:45.607Z,1.45
2022-09-14T10:56:26.314Z,1.63
2022-09-14T10:59:23.502Z,1.70
2022-09-14T11:02:37.695Z,1.77
2022-09-14T11:05:07.842Z,1.42
2022-09-14T11:07:52.725Z,1.70
2022-09-14T11:10:32.939Z,1.58
2022-09-14T11:13:27.258Z,1.70
2022-09-14T11:16:03.210Z,1.83
2022-09-14T11:19:11.847Z,1.63
2022-09-14T11:21:44.637Z,2.13
2022-09-14T11:24:23.517Z,1.67
2022-09-14T11:27:01.992Z,2.13
2022-09-14T11:29:50.762Z,2.13
2022-09-14T11:32:22.850Z,2.50
2022-09-14T11:37:57.454Z,2.10
2022-09-14T11:40:32.216Z,2.60
2022-09-14T11:43:24.877Z,2.90
2022-09-14T11:46:19.451Z,3.05
2022-09-14T11:49:13.011Z,3.03
2022-09-14T11:52:08.059Z,3.13
2022-09-14T11:54:35.167Z,2.95
2022-09-14T11:57:04.034Z,3.13
2022-09-14T11:59:40.062Z,2.90
2022-09-14T12:02:25.538Z,2.40
2022-09-14T12:05:18.603Z,2.75
2022-09-14T12:07:50.201Z,3.05
2022-09-14T12:10:20.498Z,2.55
2022-09-14T12:12:51.169Z,2.50
2022-09-14T12:15:27.288Z,2.35
2022-09-14T12:18:24.394Z,2.70
2022-09-14T12:21:01.833Z,2.38
2022-09-14T12:23:37.534Z,3.03
2022-09-14T12:26:19.766Z,3.00
2022-09-14T12:28:50.942Z,2.70
2022-09-14T12:31:51.953Z,2.33
2022-09-14T12:34:31.739Z,1.83
2022-09-14T12:37:06.606Z,1.70
2022-09-14T12:39:36.952Z,2.03
2022-09-14T12:42:29.868Z,1.90
2022-09-14T12:44:56.880Z,1.95
2022-09-14T12:47:38.905Z,2.15
2022-09-14T12:50:19.582Z,2.30
2022-09-14T12:53:00.553Z,2.13
2022-09-14T12:55:45.988Z,2.33
2022-09-14T12:58:37.532Z,1.70
2022-09-14T13:01:31.211Z,3.50
2022-09-14T13:03:58.547Z,1.45
2022-09-14T13:06:42.171Z,1.48
2022-09-14T13:09:26.588Z,1.50
2022-09-14T13:11:59.418Z,1.63
2022-09-14T13:14:36.985Z,1.63
2022-09-14T13:17:06.251Z,1.30
2022-09-14T13:19:34.216Z,1.30
2022-09-14T13:22:02.606Z,1.10
2022-09-14T13:24:48.941Z,1.15
2022-09-14T13:27:28.955Z,0.90
2022-09-14T13:30:07.163Z,1.23
2022-09-14T13:32:43.059Z,0.80
2022-09-14T13:35:30.095Z,0.90
2022-09-14T13:37:59.680Z,0.80
2022-09-14T13:40:30.191Z,1.05
2022-09-14T13:42:59.282Z,0.82
2022-09-14T13:45:26.743Z,0.80
2022-09-14T13:47:54.499Z,0.77
2022-09-14T13:50:25.386Z,0.77
2022-09-14T13:53:02.955Z,0.70
2022-09-14T13:55:33.722Z,0.60
2022-09-14T13:58:09.529Z,0.70
2022-09-14T14:00:59.925Z,0.80
2022-09-14T14:03:41.630Z,0.60
2022-09-14T14:06:31.046Z,0.57
2022-09-14T14:09:05.141Z,0.70
2022-09-14T14:11:41.166Z,0.52
2022-09-14T14:14:17.230Z,0.80
2022-09-14T14:17:23.454Z,1.20
2022-09-14T14:19:59.141Z,0.75
2022-09-14T14:22:37.708Z,0.70
2022-09-14T14:25:19.735Z,0.88
2022-09-14T14:27:48.367Z,1.00
2022-09-14T14:30:21.844Z,0.80
2022-09-14T14:32:54.803Z,0.98
2022-09-14T14:35:30.613Z,0.90
2022-09-14T14:37:58.288Z,0.90
2022-09-14T14:40:27.561Z,0.93
2022-09-14T14:42:55.441Z,1.17
2022-09-14T14:45:26.341Z,0.90
2022-09-14T14:47:55.402Z,1.35
2022-09-14T14:50:33.945Z,0.90
2022-09-14T14:53:01.902Z,1.08
2022-09-14T14:55:32.278Z,1.33
2022-09-14T14:58:07.233Z,1.30
2022-09-14T15:00:37.094Z,1.00
2022-09-14T15:03:04.313Z,1.10
2022-09-14T15:05:31.402Z,1.30
2022-09-14T15:07:58.442Z,1.25
2022-09-14T15:10:28.607Z,1.33
2022-09-14T15:12:55.554Z,1.13
2022-09-14T15:15:25.938Z,1.20
2022-09-14T15:17:54.259Z,1.45
2022-09-14T15:20:22.119Z,1.38
2022-09-14T15:22:49.690Z,1.50
2022-09-14T15:25:18.785Z,1.55
2022-09-14T15:27:46.345Z,1.58
2022-09-14T15:30:14.940Z,1.60
2022-09-14T15:32:42.565Z,1.58
2022-09-14T15:35:14.231Z,1.58
2022-09-14T15:37:41.773Z,1.55
2022-09-14T15:40:09.805Z,1.73
2022-09-14T15:42:36.803Z,1.80
2022-09-14T15:45:05.062Z,1.50
2022-09-14T15:47:36.184Z,1.60
2022-09-14T15:50:05.395Z,2.13
2022-09-14T15:52:36.362Z,1.90
2022-09-14T15:55:08.770Z,1.80
2022-09-14T16:00:08.676Z,2.00
2022-09-14T16:05:02.603Z,2.55
2022-09-14T16:07:29.780Z,1.98
2022-09-14T16:09:58.949Z,2.70
2022-09-14T16:12:26.172Z,1.90
2022-09-14T16:14:52.991Z,1.85
2022-09-14T16:17:19.878Z,2.42
2022-09-14T16:19:49.172Z,2.42
2022-09-14T16:22:16.007Z,2.13
2022-09-14T16:24:43.441Z,2.05
2022-09-14T16:27:10.535Z,2.20
2022-09-14T16:29:37.574Z,2.78
2022-09-14T16:32:04.525Z,2.00
2022-09-14T16:34:31.638Z,2.08
2022-09-14T16:36:58.737Z,2.42
2022-09-14T16:39:29.532Z,2.35
2022-09-14T16:41:57.295Z,2.38
2022-09-14T16:44:26.558Z,3.10
2022-09-14T16:46:57.758Z,2.15
2022-09-14T16:49:27.766Z,2.83
2022-09-14T16:51:56.671Z,2.47
2022-09-14T16:54:25.666Z,1.95
2022-09-14T16:56:57.156Z,2.20
2022-09-14T16:59:24.442Z,2.75
2022-09-14T17:01:54.717Z,2.22
2022-09-14T17:04:23.678Z,2.25
2022-09-14T17:06:52.022Z,2.20
2022-09-14T17:09:25.886Z,2.58
2022-09-14T17:11:54.254Z,2.58
2022-09-14T17:14:25.906Z,2.00
2022-09-14T17:16:53.311Z,2.13
2022-09-14T17:19:20.736Z,2.40
2022-09-14T17:21:48.496Z,2.13
2022-09-14T17:24:17.331Z,2.22
2022-09-14T17:26:45.318Z,2.42
2022-09-14T17:29:13.092Z,2.35
2022-09-14T17:31:43.154Z,2.17
2022-09-14T17:34:13.684Z,1.92
2022-09-14T17:36:40.876Z,2.60
2022-09-14T17:39:12.074Z,1.25
2022-09-14T17:41:40.976Z,1.47
2022-09-14T17:44:11.741Z,0.90
2022-09-14T17:46:48.165Z,0.80
2022-09-14T17:49:19.280Z,0.80
2022-09-14T17:51:46.172Z,0.80
2022-09-14T17:54:13.520Z,0.90
2022-09-14T17:56:40.837Z,0.70
2022-09-14T17:59:16.647Z,0.70
2022-09-14T18:01:43.562Z,0.80
2022-09-14T18:04:13.254Z,0.60
2022-09-14T18:06:44.264Z,0.80
2022-09-14T18:09:22.101Z,0.80
2022-09-14T18:11:50.518Z,0.68
2022-09-14T18:14:17.887Z,0.70
2022-09-14T18:16:45.542Z,0.80
2022-09-14T18:19:14.875Z,0.80
2022-09-14T18:21:42.932Z,0.70
2022-09-14T18:24:11.929Z,0.77
2022-09-14T18:26:38.760Z,0.60
2022-09-14T18:29:05.750Z,0.82
2022-09-14T18:31:32.905Z,0.90
2022-09-14T18:34:00.891Z,0.80
2022-09-14T18:36:29.771Z,0.85
2022-09-14T18:39:00.500Z,1.00
2022-09-14T18:41:31.330Z,1.00
2022-09-14T18:43:59.289Z,0.85
2022-09-14T18:46:28.515Z,0.90
2022-09-14T18:48:58.627Z,0.90
2022-09-14T18:51:27.515Z,0.93
2022-09-14T18:54:04.741Z,1.10
2022-09-14T18:56:33.505Z,0.98
2022-09-14T18:59:02.546Z,0.80
2022-09-14T19:01:30.144Z,1.20
2022-09-14T19:03:57.711Z,1.00
2022-09-14T19:06:24.984Z,2.25
2022-09-14T19:08:52.027Z,2.55
2022-09-14T19:11:25.162Z,0.60
2022-09-14T19:14:12.723Z,0.63
2022-09-14T19:16:41.369Z,0.40
2022-09-14T19:19:11.733Z,0.63
2022-09-14T19:21:38.714Z,0.52
2022-09-14T19:24:11.388Z,0.80
2022-09-14T19:29:15.880Z,0.60
2022-09-14T19:31:42.783Z,0.70
2022-09-14T19:34:11.388Z,0.80
2022-09-14T19:36:38.221Z,0.68
2022-09-14T19:39:05.654Z,0.70
2022-09-14T19:41:34.258Z,0.50
2022-09-14T19:44:02.641Z,0.57
2022-09-14T19:46:31.325Z,0.60
2022-09-14T19:48:58.703Z,0.50
2022-09-14T19:51:28.745Z,0.60
2022-09-14T19:53:59.024Z,0.60
2022-09-14T19:56:30.361Z,0.50
2022-09-14T19:59:01.067Z,0.60
2022-09-14T20:01:30.603Z,0.50
2022-09-14T20:03:58.467Z,0.57
2022-09-14T20:06:31.997Z,0.70
2022-09-14T20:09:04.461Z,0.70
2022-09-14T20:11:33.920Z,0.60
2022-09-14T20:14:04.324Z,0.60
2022-09-14T20:16:38.174Z,0.70
2022-09-14T20:19:15.050Z,0.60
2022-09-14T20:21:44.037Z,0.80
2022-09-14T20:24:17.439Z,0.70
2022-09-14T20:26:47.026Z,0.57
2022-09-14T20:29:15.674Z,0.75
2022-09-14T20:31:42.761Z,0.55
2022-09-14T20:34:10.654Z,0.63
2022-09-14T20:36:37.881Z,0.60
2022-09-14T20:39:05.513Z,0.52
2022-09-14T20:41:34.994Z,0.55
2022-09-14T20:44:02.791Z,0.65
2022-09-14T20:46:42.510Z,0.50
2022-09-14T20:49:20.801Z,0.68
2022-09-14T20:51:55.069Z,0.63
2022-09-14T20:54:22.405Z,0.60
2022-09-14T20:56:49.272Z,0.60
2022-09-14T20:59:19.051Z,0.70
2022-09-14T21:01:49.397Z,0.70
2022-09-14T21:04:22.663Z,0.70
2022-09-14T21:06:53.791Z,0.60
2022-09-14T21:09:24.667Z,0.60
2022-09-14T21:11:52.749Z,0.60
2022-09-14T21:14:20.949Z,0.50
2022-09-14T21:16:51.006Z,0.68
2022-09-14T21:19:25.229Z,0.52
2022-09-14T21:21:52.548Z,0.60
2022-09-14T21:24:21.314Z,0.70
2022-09-14T21:26:48.723Z,0.60
2022-09-14T21:29:23.400Z,0.70
2022-09-14T21:31:51.188Z,0.70
2022-09-14T21:34:18.510Z,0.80
2022-09-14T21:36:51.225Z,0.73
2022-09-14T21:39:22.987Z,1.00
2022-09-14T21:41:57.302Z,0.77
2022-09-14T21:44:37.353Z,0.77
2022-09-14T21:47:04.944Z,0.63
2022-09-14T21:49:31.914Z,0.80
2022-09-14T21:51:58.797Z,0.70
2022-09-14T21:54:26.254Z,0.85
2022-09-14T21:56:54.037Z,0.95
2022-09-14T21:59:22.684Z,1.00
2022-09-14T22:01:49.936Z,0.70
2022-09-14T22:04:22.419Z,0.60
2022-09-14T22:06:51.586Z,0.90
2022-09-14T22:09:22.844Z,1.13
2022-09-14T22:11:49.817Z,0.85
2022-09-14T22:14:21.273Z,0.98
2022-09-14T22:16:49.198Z,1.20
2022-09-14T22:19:30.697Z,0.90
2022-09-14T22:21:58.076Z,1.35
2022-09-14T22:24:38.191Z,1.13
2022-09-14T22:27:10.370Z,1.20
2022-09-14T22:29:40.878Z,1.00
2022-09-14T22:32:10.193Z,0.82
2022-09-14T22:34:39.461Z,1.13
2022-09-14T22:37:06.499Z,1.50
2022-09-14T22:39:33.766Z,1.33
2022-09-14T22:42:00.532Z,1.25
2022-09-14T22:44:27.485Z,1.13
2022-09-14T22:46:54.328Z,1.65
2022-09-14T22:49:21.530Z,1.15
2022-09-14T22:51:48.350Z,1.60
2022-09-14T22:54:15.099Z,2.00
2022-09-14T22:56:42.085Z,1.90
2022-09-14T22:59:10.310Z,2.00
2022-09-14T23:01:40.677Z,1.63
2022-09-14T23:04:13.801Z,1.80
2022-09-14T23:06:45.949Z,1.70
2022-09-14T23:09:19.841Z,1.83
2022-09-14T23:11:47.058Z,1.90
2022-09-14T23:14:15.855Z,2.08
2022-09-14T23:16:45.162Z,1.42
2022-09-14T23:19:17.120Z,1.50
2022-09-14T23:21:45.300Z,0.90
2022-09-14T23:24:12.394Z,0.90
2022-09-14T23:26:39.676Z,0.90
2022-09-14T23:29:11.415Z,1.90
2022-09-14T23:31:38.393Z,2.60
2022-09-14T23:34:06.424Z,2.03
2022-09-14T23:36:33.976Z,2.58
2022-09-14T23:39:01.733Z,3.33
2022-09-14T23:41:29.071Z,3.13
2022-09-14T23:43:56.198Z,4.43
2022-09-14T23:46:23.471Z,3.85
2022-09-14T23:48:50.722Z,3.72
2022-09-14T23:51:17.940Z,3.00
2022-09-14T23:53:45.089Z,3.70
2022-09-14T23:56:12.906Z,3.35
2022-09-14T23:58:41.851Z,3.13
